sensor_id;sensor_type;location;lat;lon;timestamp;temperature;humidity
20139;DHT22;10230;51.502;10.800;2023-05-10T03:59:23;13.60;99.90
20139;DHT22;10230;51.502;10.800;2023-05-10T04:04:15;13.50;99.90
20139;DHT22;10230;51.502;10.800;2023-05-10T04:09:06;13.50;99.90
20139;DHT22;10230;51.502;10.800;2023-05-10T04:16:25;13.40;99.90
20139;DHT22;10230;51.502;10.800;2023-05-10T04:18:51;13.60;99.90
20139;DHT22;10230;51.502;10.800;2023-05-10T04:21:16;13.60;99.90
20139;DHT22;10230;51.502;10.800;2023-05-10T04:26:08;13.40;99.90
20139;DHT22;10230;51.502;10.800;2023-05-10T04:33:30;13.50;99.90
20139;DHT22;10230;51.502;10.800;2023-05-10T04:35:56;13.60;99.90
20139;DHT22;10230;51.502;10.800;2023-05-10T04:40:48;13.50;99.90
20139;DHT22;10230;51.502;10.800;2023-05-10T04:43:13;13.70;99.90
20139;DHT22;10230;51.502;10.800;2023-05-10T04:45:39;13.70;99.90
20139;DHT22;10230;51.502;10.800;2023-05-10T04:48:05;13.70;99.90
20139;DHT22;10230;51.502;10.800;2023-05-10T04:55:23;13.80;99.90
20139;DHT22;10230;51.502;10.800;2023-05-10T05:05:11;13.90;99.90
20139;DHT22;10230;51.502;10.800;2023-05-10T05:07:37;14.00;99.90
20139;DHT22;10230;51.502;10.800;2023-05-10T05:14:57;13.90;99.90
20139;DHT22;10230;51.502;10.800;2023-05-10T05:17:23;14.20;99.90
20139;DHT22;10230;51.502;10.800;2023-05-10T05:19:48;14.60;99.90
20139;DHT22;10230;51.502;10.800;2023-05-10T05:22:14;14.20;99.90
20139;DHT22;10230;51.502;10.800;2023-05-10T05:24:39;14.30;99.90
20139;DHT22;10230;51.502;10.800;2023-05-10T05:27:08;14.30;99.90
20139;DHT22;10230;51.502;10.800;2023-05-10T05:31:59;14.20;99.90
20139;DHT22;10230;51.502;10.800;2023-05-10T05:34:25;14.50;99.90
20139;DHT22;10230;51.502;10.800;2023-05-10T05:39:17;14.60;99.90
20139;DHT22;10230;51.502;10.800;2023-05-10T05:41:43;14.70;99.90
20139;DHT22;10230;51.502;10.800;2023-05-10T05:44:09;14.70;99.90
20139;DHT22;10230;51.502;10.800;2023-05-10T05:46:35;14.60;99.90
20139;DHT22;10230;51.502;10.800;2023-05-10T05:49:01;14.60;99.90
20139;DHT22;10230;51.502;10.800;2023-05-10T05:51:26;14.90;99.90
20139;DHT22;10230;51.502;10.800;2023-05-10T05:53:52;14.60;99.90
20139;DHT22;10230;51.502;10.800;2023-05-10T05:56:18;14.60;99.90
20139;DHT22;10230;51.502;10.800;2023-05-10T05:58:50;14.50;99.90
20139;DHT22;10230;51.502;10.800;2023-05-10T06:01:15;14.40;99.90
20139;DHT22;10230;51.502;10.800;2023-05-10T06:03:41;14.30;99.90
20139;DHT22;10230;51.502;10.800;2023-05-10T06:06:07;14.20;99.90
20139;DHT22;10230;51.502;10.800;2023-05-10T06:08:33;14.20;99.90
20139;DHT22;10230;51.502;10.800;2023-05-10T06:11:00;14.10;99.90
20139;DHT22;10230;51.502;10.800;2023-05-10T06:13:25;14.10;99.90
20139;DHT22;10230;51.502;10.800;2023-05-10T06:16:00;14.10;99.90
20139;DHT22;10230;51.502;10.800;2023-05-10T06:18:26;14.10;99.90
20139;DHT22;10230;51.502;10.800;2023-05-10T06:20:52;14.20;99.90
20139;DHT22;10230;51.502;10.800;2023-05-10T06:23:17;14.20;99.90
20139;DHT22;10230;51.502;10.800;2023-05-10T06:25:43;14.20;99.90
20139;DHT22;10230;51.502;10.800;2023-05-10T06:28:09;14.10;99.90
20139;DHT22;10230;51.502;10.800;2023-05-10T06:30:36;14.10;99.90
20139;DHT22;10230;51.502;10.800;2023-05-10T06:33:02;14.10;99.90
20139;DHT22;10230;51.502;10.800;2023-05-10T06:35:28;14.20;99.90
20139;DHT22;10230;51.502;10.800;2023-05-10T06:37:54;14.20;99.90
20139;DHT22;10230;51.502;10.800;2023-05-10T06:40:20;14.30;99.90
20139;DHT22;10230;51.502;10.800;2023-05-10T06:42:46;14.60;99.90
20139;DHT22;10230;51.502;10.800;2023-05-10T06:45:13;14.40;99.90
20139;DHT22;10230;51.502;10.800;2023-05-10T06:50:07;14.50;99.90
20139;DHT22;10230;51.502;10.800;2023-05-10T06:54:59;14.70;99.90
20139;DHT22;10230;51.502;10.800;2023-05-10T06:57:25;14.90;99.90
20139;DHT22;10230;51.502;10.800;2023-05-10T06:59:51;14.60;99.90
20139;DHT22;10230;51.502;10.800;2023-05-10T07:02:18;14.50;99.90
20139;DHT22;10230;51.502;10.800;2023-05-10T07:04:43;14.50;99.90
20139;DHT22;10230;51.502;10.800;2023-05-10T07:07:09;14.30;99.90
20139;DHT22;10230;51.502;10.800;2023-05-10T07:09:35;14.20;99.90
20139;DHT22;10230;51.502;10.800;2023-05-10T07:12:01;14.20;99.90
20139;DHT22;10230;51.502;10.800;2023-05-10T07:14:27;14.20;99.90
20139;DHT22;10230;51.502;10.800;2023-05-10T07:29:03;15.10;99.90
20139;DHT22;10230;51.502;10.800;2023-05-10T07:33:55;15.10;99.90
20139;DHT22;10230;51.502;10.800;2023-05-10T07:36:20;15.00;99.90
20139;DHT22;10230;51.502;10.800;2023-05-10T07:38:46;15.00;99.90
20139;DHT22;10230;51.502;10.800;2023-05-10T07:41:12;15.00;99.90
20139;DHT22;10230;51.502;10.800;2023-05-10T07:58:20;15.70;99.90
20139;DHT22;10230;51.502;10.800;2023-05-10T08:00:45;16.00;99.90
20139;DHT22;10230;51.502;10.800;2023-05-10T08:03:11;16.20;99.90
20139;DHT22;10230;51.502;10.800;2023-05-10T08:05:37;16.20;99.90
20139;DHT22;10230;51.502;10.800;2023-05-10T08:08:02;16.20;99.90
20139;DHT22;10230;51.502;10.800;2023-05-10T08:10:28;16.20;99.90
20139;DHT22;10230;51.502;10.800;2023-05-10T08:12:54;16.10;99.90
20139;DHT22;10230;51.502;10.800;2023-05-10T08:15:19;16.20;99.90
20139;DHT22;10230;51.502;10.800;2023-05-10T08:17:45;16.30;99.90
20139;DHT22;10230;51.502;10.800;2023-05-10T08:20:11;16.50;99.90
20139;DHT22;10230;51.502;10.800;2023-05-10T08:22:38;16.70;99.90
20139;DHT22;10230;51.502;10.800;2023-05-10T08:25:04;16.70;99.90
20139;DHT22;10230;51.502;10.800;2023-05-10T08:27:29;16.80;99.90
20139;DHT22;10230;51.502;10.800;2023-05-10T08:29:55;16.80;99.90
20139;DHT22;10230;51.502;10.800;2023-05-10T08:32:21;16.80;99.90
20139;DHT22;10230;51.502;10.800;2023-05-10T08:37:12;17.10;99.90
20139;DHT22;10230;51.502;10.800;2023-05-10T08:42:05;17.20;99.90
20139;DHT22;10230;51.502;10.800;2023-05-10T08:44:35;17.30;99.90
20139;DHT22;10230;51.502;10.800;2023-05-10T08:47:05;17.40;99.90
20139;DHT22;10230;51.502;10.800;2023-05-10T08:49:34;17.40;99.90
20139;DHT22;10230;51.502;10.800;2023-05-10T08:52:03;17.50;99.90
20139;DHT22;10230;51.502;10.800;2023-05-10T08:54:31;17.50;99.90
20139;DHT22;10230;51.502;10.800;2023-05-10T08:56:57;17.60;99.90
20139;DHT22;10230;51.502;10.800;2023-05-10T08:59:22;17.70;99.90
20139;DHT22;10230;51.502;10.800;2023-05-10T09:01:49;17.70;99.90
20139;DHT22;10230;51.502;10.800;2023-05-10T09:04:15;17.80;99.90
20139;DHT22;10230;51.502;10.800;2023-05-10T09:06:41;17.90;99.90
20139;DHT22;10230;51.502;10.800;2023-05-10T09:14:00;18.20;99.90
20139;DHT22;10230;51.502;10.800;2023-05-10T09:16:26;18.10;99.90
20139;DHT22;10230;51.502;10.800;2023-05-10T09:18:52;18.00;99.90
20139;DHT22;10230;51.502;10.800;2023-05-10T09:21:19;17.80;99.90
20139;DHT22;10230;51.502;10.800;2023-05-10T09:23:45;17.70;99.90
20139;DHT22;10230;51.502;10.800;2023-05-10T09:26:12;17.40;99.90
20139;DHT22;10230;51.502;10.800;2023-05-10T09:29:10;17.20;99.90
20139;DHT22;10230;51.502;10.800;2023-05-10T09:31:46;17.00;99.90
20139;DHT22;10230;51.502;10.800;2023-05-10T09:34:16;16.90;99.90
20139;DHT22;10230;51.502;10.800;2023-05-10T09:36:56;16.90;99.90
20139;DHT22;10230;51.502;10.800;2023-05-10T09:39:36;16.90;99.90
20139;DHT22;10230;51.502;10.800;2023-05-10T09:42:09;17.00;99.90
20139;DHT22;10230;51.502;10.800;2023-05-10T09:44:36;17.10;99.90
20139;DHT22;10230;51.502;10.800;2023-05-10T09:47:02;17.30;99.90
20139;DHT22;10230;51.502;10.800;2023-05-10T09:49:29;17.40;99.90
20139;DHT22;10230;51.502;10.800;2023-05-10T09:52:05;17.50;99.90
20139;DHT22;10230;51.502;10.800;2023-05-10T09:54:32;17.60;99.90
20139;DHT22;10230;51.502;10.800;2023-05-10T09:56:58;17.70;99.90
20139;DHT22;10230;51.502;10.800;2023-05-10T09:59:27;17.70;99.90
20139;DHT22;10230;51.502;10.800;2023-05-10T10:01:57;17.70;99.90
20139;DHT22;10230;51.502;10.800;2023-05-10T10:04:23;17.70;99.90
20139;DHT22;10230;51.502;10.800;2023-05-10T10:06:59;17.80;99.90
20139;DHT22;10230;51.502;10.800;2023-05-10T10:09:25;17.80;99.90
20139;DHT22;10230;51.502;10.800;2023-05-10T10:19:11;18.80;99.90
20139;DHT22;10230;51.502;10.800;2023-05-10T10:34:31;20.10;99.90
20139;DHT22;10230;51.502;10.800;2023-05-10T10:36:58;20.50;99.90
20139;DHT22;10230;51.502;10.800;2023-05-10T10:39:28;20.70;99.90
20139;DHT22;10230;51.502;10.800;2023-05-10T10:41:55;21.10;99.90
20139;DHT22;10230;51.502;10.800;2023-05-10T10:49:26;21.40;99.90
20139;DHT22;10230;51.502;10.800;2023-05-10T10:57:44;21.60;99.90
20139;DHT22;10230;51.502;10.800;2023-05-10T11:02:57;21.60;99.90
20139;DHT22;10230;51.502;10.800;2023-05-10T11:07:55;22.00;99.90
20139;DHT22;10230;51.502;10.800;2023-05-10T11:10:22;22.20;99.90
20139;DHT22;10230;51.502;10.800;2023-05-10T11:17:56;23.10;99.90
20139;DHT22;10230;51.502;10.800;2023-05-10T11:20:22;24.40;99.90
20139;DHT22;10230;51.502;10.800;2023-05-10T11:27:47;25.00;99.90
20139;DHT22;10230;51.502;10.800;2023-05-10T11:30:14;25.20;99.90
20139;DHT22;10230;51.502;10.800;2023-05-10T11:32:40;25.30;99.90
20139;DHT22;10230;51.502;10.800;2023-05-10T11:35:10;25.20;99.90
20139;DHT22;10230;51.502;10.800;2023-05-10T11:37:38;25.10;99.90
20139;DHT22;10230;51.502;10.800;2023-05-10T11:40:07;25.10;99.90
20139;DHT22;10230;51.502;10.800;2023-05-10T11:42:38;24.90;99.90
20139;DHT22;10230;51.502;10.800;2023-05-10T11:45:05;24.90;99.90
20139;DHT22;10230;51.502;10.800;2023-05-10T11:47:31;24.80;99.90
20139;DHT22;10230;51.502;10.800;2023-05-10T11:49:57;24.90;99.90
20139;DHT22;10230;51.502;10.800;2023-05-10T11:52:23;24.90;99.90
20139;DHT22;10230;51.502;10.800;2023-05-10T11:54:55;24.60;99.90
20139;DHT22;10230;51.502;10.800;2023-05-10T11:57:26;24.40;99.90
20139;DHT22;10230;51.502;10.800;2023-05-10T11:59:59;23.90;99.90
20139;DHT22;10230;51.502;10.800;2023-05-10T12:04:51;23.00;99.90
20139;DHT22;10230;51.502;10.800;2023-05-10T12:09:44;22.50;99.90
20139;DHT22;10230;51.502;10.800;2023-05-10T12:14:36;22.10;99.90
20139;DHT22;10230;51.502;10.800;2023-05-10T12:17:02;22.20;99.90
20139;DHT22;10230;51.502;10.800;2023-05-10T12:19:28;22.40;99.90
20139;DHT22;10230;51.502;10.800;2023-05-10T12:21:53;22.80;99.90
20139;DHT22;10230;51.502;10.800;2023-05-10T12:24:19;23.30;99.90
20139;DHT22;10230;51.502;10.800;2023-05-10T12:26:46;23.80;99.90
20139;DHT22;10230;51.502;10.800;2023-05-10T12:29:18;24.50;99.90
20139;DHT22;10230;51.502;10.800;2023-05-10T12:31:54;25.20;99.90
20139;DHT22;10230;51.502;10.800;2023-05-10T12:34:34;25.80;99.90
20139;DHT22;10230;51.502;10.800;2023-05-10T12:37:00;26.40;99.90
20139;DHT22;10230;51.502;10.800;2023-05-10T12:39:26;26.90;99.90
20139;DHT22;10230;51.502;10.800;2023-05-10T12:44:28;26.00;99.90
20139;DHT22;10230;51.502;10.800;2023-05-10T12:46:54;27.30;95.90
20139;DHT22;10230;51.502;10.800;2023-05-10T12:49:20;27.20;96.10
20139;DHT22;10230;51.502;10.800;2023-05-10T12:54:11;27.70;93.50
20139;DHT22;10230;51.502;10.800;2023-05-10T12:56:37;27.40;93.90
20139;DHT22;10230;51.502;10.800;2023-05-10T12:59:03;27.20;93.30
20139;DHT22;10230;51.502;10.800;2023-05-10T13:01:28;27.20;93.80
20139;DHT22;10230;51.502;10.800;2023-05-10T13:03:54;27.40;93.30
20139;DHT22;10230;51.502;10.800;2023-05-10T13:06:20;27.40;92.30
20139;DHT22;10230;51.502;10.800;2023-05-10T13:08:45;27.10;92.40
20139;DHT22;10230;51.502;10.800;2023-05-10T13:11:11;26.90;92.70
20139;DHT22;10230;51.502;10.800;2023-05-10T13:13:37;26.60;92.90
20139;DHT22;10230;51.502;10.800;2023-05-10T13:16:02;26.30;93.10
20139;DHT22;10230;51.502;10.800;2023-05-10T13:18:28;25.90;94.00
20139;DHT22;10230;51.502;10.800;2023-05-10T14:16:57;23.90;98.30
20139;DHT22;10230;51.502;10.800;2023-05-10T14:19:24;23.80;98.10
20139;DHT22;10230;51.502;10.800;2023-05-10T14:21:50;24.00;98.30
20139;DHT22;10230;51.502;10.800;2023-05-10T14:24:17;24.00;98.40
20139;DHT22;10230;51.502;10.800;2023-05-10T14:26:42;24.00;98.40
20139;DHT22;10230;51.502;10.800;2023-05-10T14:29:08;24.10;99.00
20139;DHT22;10230;51.502;10.800;2023-05-10T14:31:34;24.10;99.30
20139;DHT22;10230;51.502;10.800;2023-05-10T14:33:59;24.20;99.00
20139;DHT22;10230;51.502;10.800;2023-05-10T14:36:25;24.40;98.40
20139;DHT22;10230;51.502;10.800;2023-05-10T14:38:51;24.50;97.80
20139;DHT22;10230;51.502;10.800;2023-05-10T14:41:17;24.40;97.30
20139;DHT22;10230;51.502;10.800;2023-05-10T14:43:43;24.20;96.80
20139;DHT22;10230;51.502;10.800;2023-05-10T14:46:08;24.20;95.10
20139;DHT22;10230;51.502;10.800;2023-05-10T14:48:34;24.10;94.30
20139;DHT22;10230;51.502;10.800;2023-05-10T14:51:00;23.80;95.10
20139;DHT22;10230;51.502;10.800;2023-05-10T14:53:26;23.30;96.40
20139;DHT22;10230;51.502;10.800;2023-05-10T14:55:51;22.90;96.50
20139;DHT22;10230;51.502;10.800;2023-05-10T14:58:17;22.90;96.80
20139;DHT22;10230;51.502;10.800;2023-05-10T15:00:43;22.90;96.60
20139;DHT22;10230;51.502;10.800;2023-05-10T15:03:09;23.00;96.70
20139;DHT22;10230;51.502;10.800;2023-05-10T15:05:34;22.90;96.80
20139;DHT22;10230;51.502;10.800;2023-05-10T15:08:02;22.80;97.30
20139;DHT22;10230;51.502;10.800;2023-05-10T15:10:28;22.80;98.20
20139;DHT22;10230;51.502;10.800;2023-05-10T15:12:54;22.70;98.50
20139;DHT22;10230;51.502;10.800;2023-05-10T15:15:19;22.60;99.00
20139;DHT22;10230;51.502;10.800;2023-05-10T15:17:45;22.30;99.80
20139;DHT22;10230;51.502;10.800;2023-05-10T15:47:01;20.70;99.90
20139;DHT22;10230;51.502;10.800;2023-05-10T15:49:28;20.60;99.90
20139;DHT22;10230;51.502;10.800;2023-05-10T15:51:53;20.60;99.90
20139;DHT22;10230;51.502;10.800;2023-05-10T15:54:19;20.50;99.90
20139;DHT22;10230;51.502;10.800;2023-05-10T15:56:44;20.50;99.90
20139;DHT22;10230;51.502;10.800;2023-05-10T15:59:10;20.70;99.90
20139;DHT22;10230;51.502;10.800;2023-05-10T16:01:36;20.80;99.90
20139;DHT22;10230;51.502;10.800;2023-05-10T16:04:02;21.00;99.90
20139;DHT22;10230;51.502;10.800;2023-05-10T16:06:27;21.00;99.90
20139;DHT22;10230;51.502;10.800;2023-05-10T16:08:53;21.10;99.90
20139;DHT22;10230;51.502;10.800;2023-05-10T16:11:19;21.10;99.90
20139;DHT22;10230;51.502;10.800;2023-05-10T16:13:45;21.20;99.90
20139;DHT22;10230;51.502;10.800;2023-05-10T16:16:11;21.30;99.90
20139;DHT22;10230;51.502;10.800;2023-05-10T16:18:36;21.10;99.90
20139;DHT22;10230;51.502;10.800;2023-05-10T16:21:02;20.90;99.90
20139;DHT22;10230;51.502;10.800;2023-05-10T16:23:28;20.80;99.90
20139;DHT22;10230;51.502;10.800;2023-05-10T16:25:54;20.80;99.90
20139;DHT22;10230;51.502;10.800;2023-05-10T16:28:19;20.80;99.90
20139;DHT22;10230;51.502;10.800;2023-05-10T16:30:46;20.70;99.90
20139;DHT22;10230;51.502;10.800;2023-05-10T16:33:12;20.70;99.90
20139;DHT22;10230;51.502;10.800;2023-05-10T16:35:38;20.60;99.90
20139;DHT22;10230;51.502;10.800;2023-05-10T16:38:03;20.40;99.90
20139;DHT22;10230;51.502;10.800;2023-05-10T16:40:29;20.30;99.90
20139;DHT22;10230;51.502;10.800;2023-05-10T17:31:43;18.70;99.90
20139;DHT22;10230;51.502;10.800;2023-05-10T17:34:08;18.70;99.90
20139;DHT22;10230;51.502;10.800;2023-05-10T17:36:34;18.50;99.90
20139;DHT22;10230;51.502;10.800;2023-05-10T17:43:53;17.90;99.90
20139;DHT22;10230;51.502;10.800;2023-05-10T18:05:50;16.70;99.90
20139;DHT22;10230;51.502;10.800;2023-05-10T18:08:15;16.60;99.90
20139;DHT22;10230;51.502;10.800;2023-05-10T18:10:47;16.50;99.90
20139;DHT22;10230;51.502;10.800;2023-05-10T18:13:12;16.50;99.90
20139;DHT22;10230;51.502;10.800;2023-05-10T18:15:38;16.40;99.90
20139;DHT22;10230;51.502;10.800;2023-05-10T18:18:04;16.40;99.90
20139;DHT22;10230;51.502;10.800;2023-05-10T18:20:30;16.30;99.90
20139;DHT22;10230;51.502;10.800;2023-05-10T18:22:56;16.30;99.90
20139;DHT22;10230;51.502;10.800;2023-05-10T18:25:23;16.30;99.90
20139;DHT22;10230;51.502;10.800;2023-05-10T18:27:49;16.30;99.90
20139;DHT22;10230;51.502;10.800;2023-05-10T18:30:15;16.30;99.90
20139;DHT22;10230;51.502;10.800;2023-05-10T18:32:41;16.30;99.90
20139;DHT22;10230;51.502;10.800;2023-05-10T18:35:07;16.20;99.90
20139;DHT22;10230;51.502;10.800;2023-05-10T18:37:33;16.20;99.90
20139;DHT22;10230;51.502;10.800;2023-05-10T18:39:59;16.20;99.90
20139;DHT22;10230;51.502;10.800;2023-05-10T18:42:25;16.20;99.90
20139;DHT22;10230;51.502;10.800;2023-05-10T18:44:51;16.10;99.90
20139;DHT22;10230;51.502;10.800;2023-05-10T18:47:17;16.00;99.90
20139;DHT22;10230;51.502;10.800;2023-05-10T18:49:43;15.90;99.90
20139;DHT22;10230;51.502;10.800;2023-05-10T18:52:10;15.80;99.90
20139;DHT22;10230;51.502;10.800;2023-05-10T18:54:37;15.60;99.90
20139;DHT22;10230;51.502;10.800;2023-05-10T18:57:03;15.50;99.90
20139;DHT22;10230;51.502;10.800;2023-05-10T18:59:29;15.40;99.90
20139;DHT22;10230;51.502;10.800;2023-05-10T19:01:55;15.30;99.90
20139;DHT22;10230;51.502;10.800;2023-05-10T19:06:46;15.10;99.90
20139;DHT22;10230;51.502;10.800;2023-05-10T19:09:12;15.10;99.90
20139;DHT22;10230;51.502;10.800;2023-05-10T19:11:38;15.00;99.90
20139;DHT22;10230;51.502;10.800;2023-05-10T19:14:03;15.00;99.90
20139;DHT22;10230;51.502;10.800;2023-05-10T19:16:30;15.00;99.90
20139;DHT22;10230;51.502;10.800;2023-05-10T19:18:58;15.00;99.90
20139;DHT22;10230;51.502;10.800;2023-05-10T19:21:24;15.10;99.90
20139;DHT22;10230;51.502;10.800;2023-05-10T19:23:50;15.10;99.90
20139;DHT22;10230;51.502;10.800;2023-05-10T19:26:16;15.10;99.90
20139;DHT22;10230;51.502;10.800;2023-05-10T19:28:42;15.10;99.90
20139;DHT22;10230;51.502;10.800;2023-05-10T19:31:08;15.10;99.90
20139;DHT22;10230;51.502;10.800;2023-05-10T19:33:33;15.10;99.90
20139;DHT22;10230;51.502;10.800;2023-05-10T19:35:59;15.10;99.90
20139;DHT22;10230;51.502;10.800;2023-05-10T19:38:25;15.10;99.90
20139;DHT22;10230;51.502;10.800;2023-05-10T19:40:53;15.00;99.90
20139;DHT22;10230;51.502;10.800;2023-05-10T19:43:23;15.10;99.90
20139;DHT22;10230;51.502;10.800;2023-05-10T19:45:49;15.00;99.90
20139;DHT22;10230;51.502;10.800;2023-05-10T19:48:15;15.00;99.90
20139;DHT22;10230;51.502;10.800;2023-05-10T19:50:40;15.00;99.90
20139;DHT22;10230;51.502;10.800;2023-05-10T19:53:06;15.00;99.90
20139;DHT22;10230;51.502;10.800;2023-05-10T19:55:31;14.90;99.90
20139;DHT22;10230;51.502;10.800;2023-05-10T19:57:58;14.90;99.90
20139;DHT22;10230;51.502;10.800;2023-05-10T20:00:26;14.90;99.90
20139;DHT22;10230;51.502;10.800;2023-05-10T20:02:52;14.90;99.90
20139;DHT22;10230;51.502;10.800;2023-05-10T20:05:18;14.90;99.90
20139;DHT22;10230;51.502;10.800;2023-05-10T20:07:44;14.90;99.90
20139;DHT22;10230;51.502;10.800;2023-05-10T20:10:10;14.90;99.90
20139;DHT22;10230;51.502;10.800;2023-05-10T20:12:35;14.80;99.90
20139;DHT22;10230;51.502;10.800;2023-05-10T20:15:02;14.80;99.90
20139;DHT22;10230;51.502;10.800;2023-05-10T20:17:28;14.80;99.90
20139;DHT22;10230;51.502;10.800;2023-05-10T20:19:53;14.80;99.90
20139;DHT22;10230;51.502;10.800;2023-05-10T20:22:19;14.80;99.90
20139;DHT22;10230;51.502;10.800;2023-05-10T20:24:45;14.80;99.90
20139;DHT22;10230;51.502;10.800;2023-05-10T20:27:12;14.80;99.90
20139;DHT22;10230;51.502;10.800;2023-05-10T20:29:37;14.80;99.90
20139;DHT22;10230;51.502;10.800;2023-05-10T20:32:03;14.80;99.90
20139;DHT22;10230;51.502;10.800;2023-05-10T20:34:29;14.80;99.90
20139;DHT22;10230;51.502;10.800;2023-05-10T20:36:55;14.80;99.90
20139;DHT22;10230;51.502;10.800;2023-05-10T20:39:21;14.80;99.90
20139;DHT22;10230;51.502;10.800;2023-05-10T20:41:47;14.70;99.90
20139;DHT22;10230;51.502;10.800;2023-05-10T20:44:13;14.70;99.90
20139;DHT22;10230;51.502;10.800;2023-05-10T20:46:39;14.70;99.90
20139;DHT22;10230;51.502;10.800;2023-05-10T20:49:06;14.70;99.90
20139;DHT22;10230;51.502;10.800;2023-05-10T20:51:32;14.70;99.90
20139;DHT22;10230;51.502;10.800;2023-05-10T20:53:58;14.70;99.90
20139;DHT22;10230;51.502;10.800;2023-05-10T20:56:26;14.60;99.90
20139;DHT22;10230;51.502;10.800;2023-05-10T20:58:51;14.60;99.90
20139;DHT22;10230;51.502;10.800;2023-05-10T21:01:17;14.60;99.90
20139;DHT22;10230;51.502;10.800;2023-05-10T21:03:43;14.50;99.90
20139;DHT22;10230;51.502;10.800;2023-05-10T21:06:08;14.50;99.90
20139;DHT22;10230;51.502;10.800;2023-05-10T21:08:34;14.50;99.90
20139;DHT22;10230;51.502;10.800;2023-05-10T21:11:01;14.50;99.90
20139;DHT22;10230;51.502;10.800;2023-05-10T21:13:33;14.60;99.90
20139;DHT22;10230;51.502;10.800;2023-05-10T21:15:59;14.60;99.90
20139;DHT22;10230;51.502;10.800;2023-05-10T21:18:24;14.60;99.90
20139;DHT22;10230;51.502;10.800;2023-05-10T21:20:50;14.60;99.90
20139;DHT22;10230;51.502;10.800;2023-05-10T21:23:16;14.60;99.90
20139;DHT22;10230;51.502;10.800;2023-05-10T21:25:41;14.60;99.90
20139;DHT22;10230;51.502;10.800;2023-05-10T21:28:07;14.60;99.90
20139;DHT22;10230;51.502;10.800;2023-05-10T21:30:33;14.60;99.90
20139;DHT22;10230;51.502;10.800;2023-05-10T21:32:59;14.70;99.90
20139;DHT22;10230;51.502;10.800;2023-05-10T21:35:26;14.60;99.90
20139;DHT22;10230;51.502;10.800;2023-05-10T21:37:51;14.60;99.90
20139;DHT22;10230;51.502;10.800;2023-05-10T21:40:17;14.60;99.90
20139;DHT22;10230;51.502;10.800;2023-05-10T21:42:43;14.70;99.90
20139;DHT22;10230;51.502;10.800;2023-05-10T21:45:14;14.70;99.90
20139;DHT22;10230;51.502;10.800;2023-05-10T21:47:39;14.70;99.90
20139;DHT22;10230;51.502;10.800;2023-05-10T21:50:06;14.70;99.90
20139;DHT22;10230;51.502;10.800;2023-05-10T21:52:34;14.70;99.90
20139;DHT22;10230;51.502;10.800;2023-05-10T21:55:00;14.70;99.90
20139;DHT22;10230;51.502;10.800;2023-05-10T21:57:25;14.80;99.90
20139;DHT22;10230;51.502;10.800;2023-05-10T21:59:51;14.70;99.90
20139;DHT22;10230;51.502;10.800;2023-05-10T22:02:17;14.70;99.90
20139;DHT22;10230;51.502;10.800;2023-05-10T22:04:42;14.70;99.90
20139;DHT22;10230;51.502;10.800;2023-05-10T22:07:08;14.80;99.90
20139;DHT22;10230;51.502;10.800;2023-05-10T22:09:34;14.80;99.90
20139;DHT22;10230;51.502;10.800;2023-05-10T22:11:59;14.80;99.90
20139;DHT22;10230;51.502;10.800;2023-05-10T22:14:25;14.80;99.90
20139;DHT22;10230;51.502;10.800;2023-05-10T22:16:51;14.80;99.90
20139;DHT22;10230;51.502;10.800;2023-05-10T22:19:16;14.80;99.90
20139;DHT22;10230;51.502;10.800;2023-05-10T22:21:42;14.80;99.90
20139;DHT22;10230;51.502;10.800;2023-05-10T22:24:07;14.70;99.90
20139;DHT22;10230;51.502;10.800;2023-05-10T22:26:33;14.70;99.90
20139;DHT22;10230;51.502;10.800;2023-05-10T22:28:59;14.70;99.90
20139;DHT22;10230;51.502;10.800;2023-05-10T22:31:25;14.70;99.90
20139;DHT22;10230;51.502;10.800;2023-05-10T22:33:50;14.70;99.90
20139;DHT22;10230;51.502;10.800;2023-05-10T22:36:16;14.70;99.90
20139;DHT22;10230;51.502;10.800;2023-05-10T22:38:42;14.70;99.90
20139;DHT22;10230;51.502;10.800;2023-05-10T22:41:07;14.70;99.90
20139;DHT22;10230;51.502;10.800;2023-05-10T22:43:33;14.60;99.90
20139;DHT22;10230;51.502;10.800;2023-05-10T22:45:58;14.60;99.90
20139;DHT22;10230;51.502;10.800;2023-05-10T22:48:24;14.60;99.90
20139;DHT22;10230;51.502;10.800;2023-05-10T22:50:50;14.60;99.90
20139;DHT22;10230;51.502;10.800;2023-05-10T22:53:16;14.60;99.90
20139;DHT22;10230;51.502;10.800;2023-05-10T22:55:41;14.50;99.90
20139;DHT22;10230;51.502;10.800;2023-05-10T22:58:07;14.50;99.90
20139;DHT22;10230;51.502;10.800;2023-05-10T23:00:33;14.50;99.90
20139;DHT22;10230;51.502;10.800;2023-05-10T23:02:59;14.50;99.90
20139;DHT22;10230;51.502;10.800;2023-05-10T23:05:24;14.50;99.90
20139;DHT22;10230;51.502;10.800;2023-05-10T23:07:51;14.50;99.90
20139;DHT22;10230;51.502;10.800;2023-05-10T23:10:21;14.50;99.90
20139;DHT22;10230;51.502;10.800;2023-05-10T23:12:47;14.50;99.90
20139;DHT22;10230;51.502;10.800;2023-05-10T23:15:12;14.50;99.90
20139;DHT22;10230;51.502;10.800;2023-05-10T23:17:38;14.50;99.90
20139;DHT22;10230;51.502;10.800;2023-05-10T23:20:04;14.40;99.90
20139;DHT22;10230;51.502;10.800;2023-05-10T23:22:30;14.40;99.90
20139;DHT22;10230;51.502;10.800;2023-05-10T23:24:55;14.30;99.90
20139;DHT22;10230;51.502;10.800;2023-05-10T23:27:21;14.30;99.90
20139;DHT22;10230;51.502;10.800;2023-05-10T23:29:47;14.30;99.90
20139;DHT22;10230;51.502;10.800;2023-05-10T23:32:16;14.30;99.90
20139;DHT22;10230;51.502;10.800;2023-05-10T23:34:42;14.30;99.90
20139;DHT22;10230;51.502;10.800;2023-05-10T23:37:08;14.30;99.90
20139;DHT22;10230;51.502;10.800;2023-05-10T23:39:33;14.30;99.90
20139;DHT22;10230;51.502;10.800;2023-05-10T23:41:59;14.30;99.90
20139;DHT22;10230;51.502;10.800;2023-05-10T23:44:24;14.30;99.90
20139;DHT22;10230;51.502;10.800;2023-05-10T23:46:50;14.30;99.90
20139;DHT22;10230;51.502;10.800;2023-05-10T23:49:16;14.30;99.90
20139;DHT22;10230;51.502;10.800;2023-05-10T23:51:42;14.30;99.90
20139;DHT22;10230;51.502;10.800;2023-05-10T23:54:08;14.30;99.90
20139;DHT22;10230;51.502;10.800;2023-05-10T23:56:33;14.30;99.90
20139;DHT22;10230;51.502;10.800;2023-05-10T23:58:59;14.30;99.90
